sensor_id;sensor_type;location;lat;lon;timestamp;P1;durP1;ratioP1;P2;durP2;ratioP2
11691;SDS011;33659;42.672;23.354;2023-12-28T00:00:05;23.93;;;12.10;;
11691;SDS011;33659;42.672;23.354;2023-12-28T00:02:34;22.10;;;11.93;;
11691;SDS011;33659;42.672;23.354;2023-12-28T00:05:01;23.13;;;12.37;;
11691;SDS011;33659;42.672;23.354;2023-12-28T00:07:27;21.87;;;11.90;;
11691;SDS011;33659;42.672;23.354;2023-12-28T00:09:54;21.80;;;11.87;;
11691;SDS011;33659;42.672;23.354;2023-12-28T00:12:21;18.87;;;10.47;;
11691;SDS011;33659;42.672;23.354;2023-12-28T00:14:48;17.30;;;10.03;;
11691;SDS011;33659;42.672;23.354;2023-12-28T00:17:14;18.30;;;9.93;;
11691;SDS011;33659;42.672;23.354;2023-12-28T00:19:42;17.17;;;10.07;;
11691;SDS011;33659;42.672;23.354;2023-12-28T00:22:09;22.20;;;9.67;;
11691;SDS011;33659;42.672;23.354;2023-12-28T00:24:36;15.57;;;8.60;;
11691;SDS011;33659;42.672;23.354;2023-12-28T00:27:02;17.30;;;9.23;;
11691;SDS011;33659;42.672;23.354;2023-12-28T00:29:29;17.23;;;9.10;;
11691;SDS011;33659;42.672;23.354;2023-12-28T00:31:57;18.27;;;10.33;;
11691;SDS011;33659;42.672;23.354;2023-12-28T00:34:24;16.60;;;9.93;;
11691;SDS011;33659;42.672;23.354;2023-12-28T00:36:52;21.03;;;10.40;;
11691;SDS011;33659;42.672;23.354;2023-12-28T00:39:19;17.63;;;9.50;;
11691;SDS011;33659;42.672;23.354;2023-12-28T00:41:46;9.60;;;6.73;;
11691;SDS011;33659;42.672;23.354;2023-12-28T00:44:12;7.30;;;5.73;;
11691;SDS011;33659;42.672;23.354;2023-12-28T00:46:39;8.97;;;5.20;;
11691;SDS011;33659;42.672;23.354;2023-12-28T00:49:06;8.90;;;5.67;;
11691;SDS011;33659;42.672;23.354;2023-12-28T00:51:33;9.13;;;5.00;;
11691;SDS011;33659;42.672;23.354;2023-12-28T00:54:01;7.60;;;4.67;;
11691;SDS011;33659;42.672;23.354;2023-12-28T00:56:28;6.83;;;5.00;;
11691;SDS011;33659;42.672;23.354;2023-12-28T00:58:54;8.37;;;4.57;;
11691;SDS011;33659;42.672;23.354;2023-12-28T01:01:21;6.60;;;5.03;;
11691;SDS011;33659;42.672;23.354;2023-12-28T01:03:48;7.93;;;4.53;;
11691;SDS011;33659;42.672;23.354;2023-12-28T01:06:14;9.57;;;5.53;;
11691;SDS011;33659;42.672;23.354;2023-12-28T01:08:41;7.57;;;4.70;;
11691;SDS011;33659;42.672;23.354;2023-12-28T01:11:09;7.40;;;5.20;;
11691;SDS011;33659;42.672;23.354;2023-12-28T01:13:37;6.10;;;4.13;;
11691;SDS011;33659;42.672;23.354;2023-12-28T01:16:04;5.07;;;4.00;;
11691;SDS011;33659;42.672;23.354;2023-12-28T01:18:31;5.53;;;4.77;;
11691;SDS011;33659;42.672;23.354;2023-12-28T01:20:58;10.27;;;4.33;;
11691;SDS011;33659;42.672;23.354;2023-12-28T01:23:24;7.23;;;4.30;;
11691;SDS011;33659;42.672;23.354;2023-12-28T01:25:51;11.40;;;5.13;;
11691;SDS011;33659;42.672;23.354;2023-12-28T01:28:19;8.30;;;4.70;;
11691;SDS011;33659;42.672;23.354;2023-12-28T01:30:46;8.23;;;5.47;;
11691;SDS011;33659;42.672;23.354;2023-12-28T01:33:12;9.30;;;5.93;;
11691;SDS011;33659;42.672;23.354;2023-12-28T01:35:40;9.87;;;5.77;;
11691;SDS011;33659;42.672;23.354;2023-12-28T01:38:07;9.53;;;6.03;;
11691;SDS011;33659;42.672;23.354;2023-12-28T01:40:34;10.73;;;5.30;;
11691;SDS011;33659;42.672;23.354;2023-12-28T01:43:01;7.73;;;5.37;;
11691;SDS011;33659;42.672;23.354;2023-12-28T01:45:29;10.93;;;6.17;;
11691;SDS011;33659;42.672;23.354;2023-12-28T01:47:56;7.20;;;5.43;;
11691;SDS011;33659;42.672;23.354;2023-12-28T01:50:24;10.30;;;5.73;;
11691;SDS011;33659;42.672;23.354;2023-12-28T01:52:53;9.37;;;5.47;;
11691;SDS011;33659;42.672;23.354;2023-12-28T01:55:21;10.37;;;5.63;;
11691;SDS011;33659;42.672;23.354;2023-12-28T01:57:49;13.90;;;6.43;;
11691;SDS011;33659;42.672;23.354;2023-12-28T02:00:16;6.53;;;5.03;;
11691;SDS011;33659;42.672;23.354;2023-12-28T02:02:44;7.47;;;5.63;;
11691;SDS011;33659;42.672;23.354;2023-12-28T02:05:11;12.47;;;6.03;;
11691;SDS011;33659;42.672;23.354;2023-12-28T02:07:38;10.90;;;6.40;;
11691;SDS011;33659;42.672;23.354;2023-12-28T02:10:05;7.27;;;6.00;;
11691;SDS011;33659;42.672;23.354;2023-12-28T02:12:33;8.80;;;5.97;;
11691;SDS011;33659;42.672;23.354;2023-12-28T02:14:59;7.10;;;5.37;;
11691;SDS011;33659;42.672;23.354;2023-12-28T02:17:28;10.10;;;6.10;;
11691;SDS011;33659;42.672;23.354;2023-12-28T02:20:00;9.73;;;6.33;;
11691;SDS011;33659;42.672;23.354;2023-12-28T02:22:30;9.03;;;5.60;;
11691;SDS011;33659;42.672;23.354;2023-12-28T02:25:08;11.70;;;6.33;;
11691;SDS011;33659;42.672;23.354;2023-12-28T02:27:38;8.63;;;5.93;;
11691;SDS011;33659;42.672;23.354;2023-12-28T02:30:06;11.90;;;6.63;;
11691;SDS011;33659;42.672;23.354;2023-12-28T02:35:23;9.10;;;6.53;;
11691;SDS011;33659;42.672;23.354;2023-12-28T02:37:56;8.13;;;5.97;;
11691;SDS011;33659;42.672;23.354;2023-12-28T02:40:26;9.87;;;6.27;;
11691;SDS011;33659;42.672;23.354;2023-12-28T02:42:54;8.63;;;5.60;;
11691;SDS011;33659;42.672;23.354;2023-12-28T02:45:21;9.40;;;6.13;;
11691;SDS011;33659;42.672;23.354;2023-12-28T02:47:47;9.10;;;5.27;;
11691;SDS011;33659;42.672;23.354;2023-12-28T02:50:14;7.27;;;5.03;;
11691;SDS011;33659;42.672;23.354;2023-12-28T02:52:41;8.73;;;5.93;;
11691;SDS011;33659;42.672;23.354;2023-12-28T02:55:08;15.20;;;5.73;;
11691;SDS011;33659;42.672;23.354;2023-12-28T02:57:37;9.97;;;5.10;;
11691;SDS011;33659;42.672;23.354;2023-12-28T03:00:05;9.23;;;5.23;;
11691;SDS011;33659;42.672;23.354;2023-12-28T03:02:34;8.93;;;5.90;;
11691;SDS011;33659;42.672;23.354;2023-12-28T03:05:01;12.03;;;7.23;;
11691;SDS011;33659;42.672;23.354;2023-12-28T03:07:28;10.67;;;6.30;;
11691;SDS011;33659;42.672;23.354;2023-12-28T03:09:54;9.10;;;6.40;;
11691;SDS011;33659;42.672;23.354;2023-12-28T03:12:21;9.57;;;6.30;;
11691;SDS011;33659;42.672;23.354;2023-12-28T03:14:49;11.13;;;7.20;;
11691;SDS011;33659;42.672;23.354;2023-12-28T03:17:16;10.03;;;7.40;;
11691;SDS011;33659;42.672;23.354;2023-12-28T03:19:43;9.30;;;6.03;;
11691;SDS011;33659;42.672;23.354;2023-12-28T03:22:09;10.83;;;6.20;;
11691;SDS011;33659;42.672;23.354;2023-12-28T03:24:36;12.37;;;6.40;;
11691;SDS011;33659;42.672;23.354;2023-12-28T03:27:03;11.07;;;6.60;;
11691;SDS011;33659;42.672;23.354;2023-12-28T03:29:30;11.67;;;6.30;;
11691;SDS011;33659;42.672;23.354;2023-12-28T03:31:58;10.13;;;6.67;;
11691;SDS011;33659;42.672;23.354;2023-12-28T03:34:25;12.70;;;7.87;;
11691;SDS011;33659;42.672;23.354;2023-12-28T03:36:54;12.47;;;7.87;;
11691;SDS011;33659;42.672;23.354;2023-12-28T03:39:21;14.97;;;9.30;;
11691;SDS011;33659;42.672;23.354;2023-12-28T03:41:48;19.53;;;11.53;;
11691;SDS011;33659;42.672;23.354;2023-12-28T03:44:15;25.07;;;13.97;;
11691;SDS011;33659;42.672;23.354;2023-12-28T03:46:41;26.83;;;14.03;;
11691;SDS011;33659;42.672;23.354;2023-12-28T03:49:10;22.27;;;12.90;;
11691;SDS011;33659;42.672;23.354;2023-12-28T03:51:36;18.73;;;12.70;;
11691;SDS011;33659;42.672;23.354;2023-12-28T03:54:03;19.80;;;12.20;;
11691;SDS011;33659;42.672;23.354;2023-12-28T03:56:29;20.47;;;11.07;;
11691;SDS011;33659;42.672;23.354;2023-12-28T03:58:58;19.53;;;11.13;;
11691;SDS011;33659;42.672;23.354;2023-12-28T04:01:24;18.03;;;10.50;;
11691;SDS011;33659;42.672;23.354;2023-12-28T04:03:51;11.67;;;7.33;;
11691;SDS011;33659;42.672;23.354;2023-12-28T04:06:19;9.57;;;6.10;;
11691;SDS011;33659;42.672;23.354;2023-12-28T04:08:46;10.50;;;5.73;;
11691;SDS011;33659;42.672;23.354;2023-12-28T04:11:12;9.30;;;5.67;;
11691;SDS011;33659;42.672;23.354;2023-12-28T04:13:39;7.00;;;5.17;;
11691;SDS011;33659;42.672;23.354;2023-12-28T04:16:06;7.47;;;4.70;;
11691;SDS011;33659;42.672;23.354;2023-12-28T04:18:34;12.03;;;5.33;;
11691;SDS011;33659;42.672;23.354;2023-12-28T04:21:01;6.70;;;4.50;;
11691;SDS011;33659;42.672;23.354;2023-12-28T04:23:29;9.40;;;5.60;;
11691;SDS011;33659;42.672;23.354;2023-12-28T04:25:56;7.20;;;5.00;;
11691;SDS011;33659;42.672;23.354;2023-12-28T04:28:24;8.63;;;4.70;;
11691;SDS011;33659;42.672;23.354;2023-12-28T04:30:51;7.83;;;5.27;;
11691;SDS011;33659;42.672;23.354;2023-12-28T04:33:17;7.70;;;5.10;;
11691;SDS011;33659;42.672;23.354;2023-12-28T04:35:45;14.27;;;6.23;;
11691;SDS011;33659;42.672;23.354;2023-12-28T04:38:11;8.93;;;5.70;;
11691;SDS011;33659;42.672;23.354;2023-12-28T04:40:40;11.07;;;6.33;;
11691;SDS011;33659;42.672;23.354;2023-12-28T04:43:07;9.00;;;5.93;;
11691;SDS011;33659;42.672;23.354;2023-12-28T04:45:33;8.27;;;6.30;;
11691;SDS011;33659;42.672;23.354;2023-12-28T04:48:00;10.33;;;7.20;;
11691;SDS011;33659;42.672;23.354;2023-12-28T04:50:27;11.20;;;7.20;;
11691;SDS011;33659;42.672;23.354;2023-12-28T04:52:54;13.40;;;7.87;;
11691;SDS011;33659;42.672;23.354;2023-12-28T04:55:20;10.67;;;7.87;;
11691;SDS011;33659;42.672;23.354;2023-12-28T04:57:50;15.53;;;9.30;;
11691;SDS011;33659;42.672;23.354;2023-12-28T05:00:17;14.93;;;9.20;;
11691;SDS011;33659;42.672;23.354;2023-12-28T05:02:44;16.50;;;7.90;;
11691;SDS011;33659;42.672;23.354;2023-12-28T05:05:11;14.40;;;7.53;;
11691;SDS011;33659;42.672;23.354;2023-12-28T05:07:38;10.63;;;6.80;;
11691;SDS011;33659;42.672;23.354;2023-12-28T05:10:05;11.60;;;6.93;;
11691;SDS011;33659;42.672;23.354;2023-12-28T05:12:32;11.40;;;6.97;;
11691;SDS011;33659;42.672;23.354;2023-12-28T05:15:00;10.60;;;8.00;;
11691;SDS011;33659;42.672;23.354;2023-12-28T05:17:26;11.13;;;7.50;;
11691;SDS011;33659;42.672;23.354;2023-12-28T05:19:53;15.70;;;7.93;;
11691;SDS011;33659;42.672;23.354;2023-12-28T05:22:21;11.90;;;6.73;;
11691;SDS011;33659;42.672;23.354;2023-12-28T05:24:47;10.30;;;7.13;;
11691;SDS011;33659;42.672;23.354;2023-12-28T05:27:14;14.20;;;7.93;;
11691;SDS011;33659;42.672;23.354;2023-12-28T05:29:41;9.40;;;6.77;;
11691;SDS011;33659;42.672;23.354;2023-12-28T05:32:09;12.10;;;7.70;;
11691;SDS011;33659;42.672;23.354;2023-12-28T05:34:35;14.80;;;7.87;;
11691;SDS011;33659;42.672;23.354;2023-12-28T05:37:02;15.63;;;8.20;;
11691;SDS011;33659;42.672;23.354;2023-12-28T05:39:29;11.53;;;8.20;;
11691;SDS011;33659;42.672;23.354;2023-12-28T05:41:55;16.70;;;8.20;;
11691;SDS011;33659;42.672;23.354;2023-12-28T05:44:22;15.43;;;9.07;;
11691;SDS011;33659;42.672;23.354;2023-12-28T05:46:49;14.00;;;9.10;;
11691;SDS011;33659;42.672;23.354;2023-12-28T05:49:18;16.60;;;8.90;;
11691;SDS011;33659;42.672;23.354;2023-12-28T05:51:45;21.17;;;9.07;;
11691;SDS011;33659;42.672;23.354;2023-12-28T05:54:12;14.00;;;9.20;;
11691;SDS011;33659;42.672;23.354;2023-12-28T05:56:38;20.87;;;11.50;;
11691;SDS011;33659;42.672;23.354;2023-12-28T05:59:05;18.50;;;11.27;;
11691;SDS011;33659;42.672;23.354;2023-12-28T06:01:32;15.93;;;10.70;;
11691;SDS011;33659;42.672;23.354;2023-12-28T06:03:58;20.53;;;12.63;;
11691;SDS011;33659;42.672;23.354;2023-12-28T06:06:26;22.43;;;12.83;;
11691;SDS011;33659;42.672;23.354;2023-12-28T06:08:53;23.77;;;12.83;;
11691;SDS011;33659;42.672;23.354;2023-12-28T06:11:20;24.43;;;13.07;;
11691;SDS011;33659;42.672;23.354;2023-12-28T06:13:46;21.00;;;12.47;;
11691;SDS011;33659;42.672;23.354;2023-12-28T06:16:13;22.10;;;13.33;;
11691;SDS011;33659;42.672;23.354;2023-12-28T06:18:40;21.17;;;12.60;;
11691;SDS011;33659;42.672;23.354;2023-12-28T06:21:07;21.33;;;13.37;;
11691;SDS011;33659;42.672;23.354;2023-12-28T06:23:35;19.90;;;13.67;;
11691;SDS011;33659;42.672;23.354;2023-12-28T06:26:05;22.30;;;13.23;;
11691;SDS011;33659;42.672;23.354;2023-12-28T06:28:32;24.17;;;14.13;;
11691;SDS011;33659;42.672;23.354;2023-12-28T06:30:59;24.43;;;13.47;;
11691;SDS011;33659;42.672;23.354;2023-12-28T06:33:26;25.27;;;14.27;;
11691;SDS011;33659;42.672;23.354;2023-12-28T06:35:53;25.27;;;14.00;;
11691;SDS011;33659;42.672;23.354;2023-12-28T06:38:22;31.43;;;15.50;;
11691;SDS011;33659;42.672;23.354;2023-12-28T06:40:50;26.47;;;14.13;;
11691;SDS011;33659;42.672;23.354;2023-12-28T06:43:17;22.13;;;14.07;;
11691;SDS011;33659;42.672;23.354;2023-12-28T06:45:44;25.87;;;15.57;;
11691;SDS011;33659;42.672;23.354;2023-12-28T06:48:10;28.37;;;14.80;;
11691;SDS011;33659;42.672;23.354;2023-12-28T06:50:37;24.73;;;15.37;;
11691;SDS011;33659;42.672;23.354;2023-12-28T06:53:04;26.03;;;14.97;;
11691;SDS011;33659;42.672;23.354;2023-12-28T06:55:30;23.77;;;13.33;;
11691;SDS011;33659;42.672;23.354;2023-12-28T06:57:58;28.20;;;13.93;;
11691;SDS011;33659;42.672;23.354;2023-12-28T07:00:25;20.87;;;12.27;;
11691;SDS011;33659;42.672;23.354;2023-12-28T07:02:52;18.37;;;12.13;;
11691;SDS011;33659;42.672;23.354;2023-12-28T07:05:19;21.63;;;12.73;;
11691;SDS011;33659;42.672;23.354;2023-12-28T07:07:45;28.57;;;14.67;;
11691;SDS011;33659;42.672;23.354;2023-12-28T07:10:12;29.40;;;16.33;;
11691;SDS011;33659;42.672;23.354;2023-12-28T07:12:39;33.03;;;16.27;;
11691;SDS011;33659;42.672;23.354;2023-12-28T07:15:07;35.80;;;18.90;;
11691;SDS011;33659;42.672;23.354;2023-12-28T07:17:38;29.03;;;18.87;;
11691;SDS011;33659;42.672;23.354;2023-12-28T07:20:05;29.50;;;17.80;;
11691;SDS011;33659;42.672;23.354;2023-12-28T07:22:34;31.50;;;18.23;;
11691;SDS011;33659;42.672;23.354;2023-12-28T07:25:01;29.00;;;18.30;;
11691;SDS011;33659;42.672;23.354;2023-12-28T07:27:27;27.80;;;17.10;;
11691;SDS011;33659;42.672;23.354;2023-12-28T07:29:54;25.70;;;15.53;;
11691;SDS011;33659;42.672;23.354;2023-12-28T07:32:22;26.93;;;16.47;;
11691;SDS011;33659;42.672;23.354;2023-12-28T07:34:51;22.60;;;14.33;;
11691;SDS011;33659;42.672;23.354;2023-12-28T07:37:17;25.37;;;14.70;;
11691;SDS011;33659;42.672;23.354;2023-12-28T07:39:44;24.07;;;14.33;;
11691;SDS011;33659;42.672;23.354;2023-12-28T07:42:11;26.10;;;15.30;;
11691;SDS011;33659;42.672;23.354;2023-12-28T07:44:38;23.23;;;14.07;;
11691;SDS011;33659;42.672;23.354;2023-12-28T07:47:05;22.23;;;14.70;;
11691;SDS011;33659;42.672;23.354;2023-12-28T07:49:33;24.50;;;14.87;;
11691;SDS011;33659;42.672;23.354;2023-12-28T07:52:00;30.70;;;15.07;;
11691;SDS011;33659;42.672;23.354;2023-12-28T07:54:27;21.53;;;14.70;;
11691;SDS011;33659;42.672;23.354;2023-12-28T07:56:54;18.07;;;12.93;;
11691;SDS011;33659;42.672;23.354;2023-12-28T07:59:21;26.90;;;13.70;;
11691;SDS011;33659;42.672;23.354;2023-12-28T08:01:47;22.70;;;13.17;;
11691;SDS011;33659;42.672;23.354;2023-12-28T08:04:14;23.53;;;13.70;;
11691;SDS011;33659;42.672;23.354;2023-12-28T08:06:42;22.83;;;13.07;;
11691;SDS011;33659;42.672;23.354;2023-12-28T08:09:09;21.87;;;13.27;;
11691;SDS011;33659;42.672;23.354;2023-12-28T08:11:36;25.97;;;12.93;;
11691;SDS011;33659;42.672;23.354;2023-12-28T08:14:02;15.83;;;10.47;;
11691;SDS011;33659;42.672;23.354;2023-12-28T08:16:29;15.83;;;9.87;;
11691;SDS011;33659;42.672;23.354;2023-12-28T08:18:56;20.07;;;11.60;;
11691;SDS011;33659;42.672;23.354;2023-12-28T08:21:22;20.17;;;11.77;;
11691;SDS011;33659;42.672;23.354;2023-12-28T08:23:50;18.43;;;11.50;;
11691;SDS011;33659;42.672;23.354;2023-12-28T08:26:17;18.07;;;11.20;;
11691;SDS011;33659;42.672;23.354;2023-12-28T08:28:44;18.33;;;12.47;;
11691;SDS011;33659;42.672;23.354;2023-12-28T08:31:12;22.83;;;13.17;;
11691;SDS011;33659;42.672;23.354;2023-12-28T08:33:39;30.57;;;13.77;;
11691;SDS011;33659;42.672;23.354;2023-12-28T08:36:06;17.73;;;12.07;;
11691;SDS011;33659;42.672;23.354;2023-12-28T08:38:33;18.47;;;12.40;;
11691;SDS011;33659;42.672;23.354;2023-12-28T08:41:01;19.90;;;12.27;;
11691;SDS011;33659;42.672;23.354;2023-12-28T08:43:28;24.93;;;13.17;;
11691;SDS011;33659;42.672;23.354;2023-12-28T08:45:55;20.33;;;12.97;;
11691;SDS011;33659;42.672;23.354;2023-12-28T08:48:21;22.73;;;12.37;;
11691;SDS011;33659;42.672;23.354;2023-12-28T08:50:48;23.37;;;13.13;;
11691;SDS011;33659;42.672;23.354;2023-12-28T08:53:15;19.83;;;13.57;;
11691;SDS011;33659;42.672;23.354;2023-12-28T08:55:41;20.47;;;12.93;;
11691;SDS011;33659;42.672;23.354;2023-12-28T08:58:09;22.07;;;14.13;;
11691;SDS011;33659;42.672;23.354;2023-12-28T09:00:36;21.47;;;13.70;;
11691;SDS011;33659;42.672;23.354;2023-12-28T09:03:03;23.20;;;12.60;;
11691;SDS011;33659;42.672;23.354;2023-12-28T09:05:30;18.60;;;11.87;;
11691;SDS011;33659;42.672;23.354;2023-12-28T09:07:56;20.07;;;13.03;;
11691;SDS011;33659;42.672;23.354;2023-12-28T09:10:23;19.97;;;11.70;;
11691;SDS011;33659;42.672;23.354;2023-12-28T09:12:50;20.93;;;11.83;;
11691;SDS011;33659;42.672;23.354;2023-12-28T09:15:18;15.13;;;11.47;;
11691;SDS011;33659;42.672;23.354;2023-12-28T09:17:45;22.27;;;11.47;;
11691;SDS011;33659;42.672;23.354;2023-12-28T09:20:15;15.70;;;10.27;;
11691;SDS011;33659;42.672;23.354;2023-12-28T09:22:41;19.13;;;11.33;;
11691;SDS011;33659;42.672;23.354;2023-12-28T09:25:08;23.83;;;11.67;;
11691;SDS011;33659;42.672;23.354;2023-12-28T09:27:35;17.90;;;12.43;;
11691;SDS011;33659;42.672;23.354;2023-12-28T09:30:02;19.97;;;12.47;;
11691;SDS011;33659;42.672;23.354;2023-12-28T09:32:30;22.60;;;13.17;;
11691;SDS011;33659;42.672;23.354;2023-12-28T09:34:58;21.77;;;13.10;;
11691;SDS011;33659;42.672;23.354;2023-12-28T09:37:24;19.23;;;13.17;;
11691;SDS011;33659;42.672;23.354;2023-12-28T09:39:51;20.07;;;13.73;;
11691;SDS011;33659;42.672;23.354;2023-12-28T09:42:23;17.87;;;12.43;;
11691;SDS011;33659;42.672;23.354;2023-12-28T09:44:52;21.03;;;14.33;;
11691;SDS011;33659;42.672;23.354;2023-12-28T09:47:19;23.80;;;15.30;;
11691;SDS011;33659;42.672;23.354;2023-12-28T09:49:48;26.63;;;14.90;;
11691;SDS011;33659;42.672;23.354;2023-12-28T09:52:15;24.13;;;14.77;;
11691;SDS011;33659;42.672;23.354;2023-12-28T09:54:41;24.67;;;15.35;;
11691;SDS011;33659;42.672;23.354;2023-12-28T09:57:08;25.70;;;15.93;;
11691;SDS011;33659;42.672;23.354;2023-12-28T09:59:36;30.63;;;17.13;;
11691;SDS011;33659;42.672;23.354;2023-12-28T10:02:04;27.13;;;17.27;;
11691;SDS011;33659;42.672;23.354;2023-12-28T10:04:31;28.10;;;17.50;;
11691;SDS011;33659;42.672;23.354;2023-12-28T10:06:59;28.00;;;17.63;;
11691;SDS011;33659;42.672;23.354;2023-12-28T10:09:26;26.95;;;18.42;;
11691;SDS011;33659;42.672;23.354;2023-12-28T10:11:53;29.95;;;19.50;;
11691;SDS011;33659;42.672;23.354;2023-12-28T10:14:20;29.55;;;19.80;;
11691;SDS011;33659;42.672;23.354;2023-12-28T10:16:47;21.98;;;16.83;;
11691;SDS011;33659;42.672;23.354;2023-12-28T10:19:13;24.00;;;18.08;;
11691;SDS011;33659;42.672;23.354;2023-12-28T10:21:40;29.67;;;18.33;;
11691;SDS011;33659;42.672;23.354;2023-12-28T10:24:11;30.42;;;17.92;;
11691;SDS011;33659;42.672;23.354;2023-12-28T10:26:38;25.38;;;18.45;;
11691;SDS011;33659;42.672;23.354;2023-12-28T10:29:05;24.58;;;15.43;;
11691;SDS011;33659;42.672;23.354;2023-12-28T10:31:32;24.60;;;16.08;;
11691;SDS011;33659;42.672;23.354;2023-12-28T10:33:59;22.95;;;14.90;;
11691;SDS011;33659;42.672;23.354;2023-12-28T10:36:27;21.35;;;13.93;;
11691;SDS011;33659;42.672;23.354;2023-12-28T10:38:54;19.38;;;14.32;;
11691;SDS011;33659;42.672;23.354;2023-12-28T10:41:24;25.17;;;14.50;;
11691;SDS011;33659;42.672;23.354;2023-12-28T10:43:57;19.48;;;12.63;;
11691;SDS011;33659;42.672;23.354;2023-12-28T10:46:30;22.83;;;13.77;;
11691;SDS011;33659;42.672;23.354;2023-12-28T10:48:58;21.20;;;13.35;;
11691;SDS011;33659;42.672;23.354;2023-12-28T10:51:27;26.08;;;13.98;;
11691;SDS011;33659;42.672;23.354;2023-12-28T10:53:58;21.08;;;14.05;;
11691;SDS011;33659;42.672;23.354;2023-12-28T10:56:33;23.00;;;13.98;;
11691;SDS011;33659;42.672;23.354;2023-12-28T10:59:05;17.27;;;13.90;;
11691;SDS011;33659;42.672;23.354;2023-12-28T11:01:41;17.05;;;12.68;;
11691;SDS011;33659;42.672;23.354;2023-12-28T11:04:12;26.63;;;13.00;;
11691;SDS011;33659;42.672;23.354;2023-12-28T11:06:44;20.50;;;11.82;;
11691;SDS011;33659;42.672;23.354;2023-12-28T11:09:12;16.83;;;12.13;;
11691;SDS011;33659;42.672;23.354;2023-12-28T11:11:41;21.45;;;12.15;;
11691;SDS011;33659;42.672;23.354;2023-12-28T11:14:10;18.80;;;12.45;;
11691;SDS011;33659;42.672;23.354;2023-12-28T11:16:40;20.63;;;12.77;;
11691;SDS011;33659;42.672;23.354;2023-12-28T11:19:07;32.67;;;13.27;;
11691;SDS011;33659;42.672;23.354;2023-12-28T11:21:35;18.00;;;11.75;;
11691;SDS011;33659;42.672;23.354;2023-12-28T11:24:03;19.63;;;13.32;;
11691;SDS011;33659;42.672;23.354;2023-12-28T11:26:31;17.13;;;11.50;;
11691;SDS011;33659;42.672;23.354;2023-12-28T11:29:02;17.92;;;10.90;;
11691;SDS011;33659;42.672;23.354;2023-12-28T11:31:31;17.73;;;11.80;;
11691;SDS011;33659;42.672;23.354;2023-12-28T11:33:59;22.92;;;12.57;;
11691;SDS011;33659;42.672;23.354;2023-12-28T11:36:32;18.38;;;12.60;;
11691;SDS011;33659;42.672;23.354;2023-12-28T11:39:01;22.33;;;14.45;;
11691;SDS011;33659;42.672;23.354;2023-12-28T11:41:30;20.98;;;13.30;;
11691;SDS011;33659;42.672;23.354;2023-12-28T11:44:01;18.98;;;14.70;;
11691;SDS011;33659;42.672;23.354;2023-12-28T11:46:30;21.08;;;14.05;;
11691;SDS011;33659;42.672;23.354;2023-12-28T11:49:02;19.45;;;14.82;;
11691;SDS011;33659;42.672;23.354;2023-12-28T11:51:30;24.00;;;15.00;;
11691;SDS011;33659;42.672;23.354;2023-12-28T11:53:56;22.83;;;15.48;;
11691;SDS011;33659;42.672;23.354;2023-12-28T11:56:25;18.88;;;13.38;;
11691;SDS011;33659;42.672;23.354;2023-12-28T11:58:52;20.52;;;14.07;;
11691;SDS011;33659;42.672;23.354;2023-12-28T12:01:20;21.38;;;14.77;;
11691;SDS011;33659;42.672;23.354;2023-12-28T12:03:47;24.63;;;14.25;;
11691;SDS011;33659;42.672;23.354;2023-12-28T12:06:14;20.13;;;12.82;;
11691;SDS011;33659;42.672;23.354;2023-12-28T12:08:44;17.00;;;11.73;;
11691;SDS011;33659;42.672;23.354;2023-12-28T12:11:11;16.65;;;12.15;;
11691;SDS011;33659;42.672;23.354;2023-12-28T12:13:38;16.90;;;11.48;;
11691;SDS011;33659;42.672;23.354;2023-12-28T12:16:05;21.58;;;11.68;;
11691;SDS011;33659;42.672;23.354;2023-12-28T12:18:34;19.90;;;12.15;;
11691;SDS011;33659;42.672;23.354;2023-12-28T12:21:01;15.25;;;11.15;;
11691;SDS011;33659;42.672;23.354;2023-12-28T12:23:28;20.35;;;10.38;;
11691;SDS011;33659;42.672;23.354;2023-12-28T12:25:55;18.15;;;11.00;;
11691;SDS011;33659;42.672;23.354;2023-12-28T12:28:21;18.27;;;10.73;;
11691;SDS011;33659;42.672;23.354;2023-12-28T12:30:51;17.67;;;10.90;;
11691;SDS011;33659;42.672;23.354;2023-12-28T12:33:20;14.93;;;10.05;;
11691;SDS011;33659;42.672;23.354;2023-12-28T12:35:49;17.40;;;10.55;;
11691;SDS011;33659;42.672;23.354;2023-12-28T12:38:16;15.45;;;10.45;;
11691;SDS011;33659;42.672;23.354;2023-12-28T12:40:43;17.13;;;10.68;;
11691;SDS011;33659;42.672;23.354;2023-12-28T12:43:10;18.27;;;11.68;;
11691;SDS011;33659;42.672;23.354;2023-12-28T12:45:36;16.55;;;11.68;;
11691;SDS011;33659;42.672;23.354;2023-12-28T12:48:04;17.25;;;12.57;;
11691;SDS011;33659;42.672;23.354;2023-12-28T12:50:32;17.90;;;12.45;;
11691;SDS011;33659;42.672;23.354;2023-12-28T12:53:00;18.67;;;13.38;;
11691;SDS011;33659;42.672;23.354;2023-12-28T12:55:27;20.08;;;12.02;;
11691;SDS011;33659;42.672;23.354;2023-12-28T12:57:54;25.30;;;13.13;;
11691;SDS011;33659;42.672;23.354;2023-12-28T13:00:21;18.60;;;12.30;;
11691;SDS011;33659;42.672;23.354;2023-12-28T13:02:49;17.65;;;12.27;;
11691;SDS011;33659;42.672;23.354;2023-12-28T13:05:16;18.20;;;12.48;;
11691;SDS011;33659;42.672;23.354;2023-12-28T13:07:45;21.25;;;13.13;;
11691;SDS011;33659;42.672;23.354;2023-12-28T13:10:13;16.42;;;11.80;;
11691;SDS011;33659;42.672;23.354;2023-12-28T13:12:40;19.00;;;11.63;;
11691;SDS011;33659;42.672;23.354;2023-12-28T13:15:07;15.63;;;11.40;;
11691;SDS011;33659;42.672;23.354;2023-12-28T13:17:35;19.13;;;11.95;;
11691;SDS011;33659;42.672;23.354;2023-12-28T13:20:01;17.25;;;11.35;;
11691;SDS011;33659;42.672;23.354;2023-12-28T13:22:30;18.30;;;11.75;;
11691;SDS011;33659;42.672;23.354;2023-12-28T13:24:57;20.65;;;11.40;;
11691;SDS011;33659;42.672;23.354;2023-12-28T13:27:25;15.02;;;10.57;;
11691;SDS011;33659;42.672;23.354;2023-12-28T13:29:53;20.58;;;11.75;;
11691;SDS011;33659;42.672;23.354;2023-12-28T13:32:20;20.50;;;12.07;;
11691;SDS011;33659;42.672;23.354;2023-12-28T13:34:48;18.58;;;10.27;;
11691;SDS011;33659;42.672;23.354;2023-12-28T13:37:15;18.73;;;10.85;;
11691;SDS011;33659;42.672;23.354;2023-12-28T13:39:42;19.42;;;10.70;;
11691;SDS011;33659;42.672;23.354;2023-12-28T13:42:09;15.38;;;11.10;;
11691;SDS011;33659;42.672;23.354;2023-12-28T13:44:37;21.50;;;12.90;;
11691;SDS011;33659;42.672;23.354;2023-12-28T13:47:04;20.27;;;11.30;;
11691;SDS011;33659;42.672;23.354;2023-12-28T13:49:32;19.70;;;11.48;;
11691;SDS011;33659;42.672;23.354;2023-12-28T13:51:58;20.52;;;11.32;;
11691;SDS011;33659;42.672;23.354;2023-12-28T13:54:25;23.75;;;12.23;;
11691;SDS011;33659;42.672;23.354;2023-12-28T13:56:53;17.55;;;12.27;;
11691;SDS011;33659;42.672;23.354;2023-12-28T13:59:22;16.60;;;10.63;;
11691;SDS011;33659;42.672;23.354;2023-12-28T14:01:50;20.77;;;11.68;;
11691;SDS011;33659;42.672;23.354;2023-12-28T14:04:17;16.40;;;11.00;;
11691;SDS011;33659;42.672;23.354;2023-12-28T14:06:44;17.92;;;11.60;;
11691;SDS011;33659;42.672;23.354;2023-12-28T14:09:10;26.80;;;12.35;;
11691;SDS011;33659;42.672;23.354;2023-12-28T14:11:37;18.00;;;11.10;;
11691;SDS011;33659;42.672;23.354;2023-12-28T14:14:04;20.90;;;12.68;;
11691;SDS011;33659;42.672;23.354;2023-12-28T14:16:31;25.50;;;12.32;;
11691;SDS011;33659;42.672;23.354;2023-12-28T14:18:59;20.33;;;11.88;;